createdAt,value
2023-03-21T00:00:09.643Z,101502.81
2023-03-21T00:00:41.269Z,101501.63
2023-03-21T00:01:14.154Z,101503.06
2023-03-21T00:01:45.760Z,101504.97
2023-03-21T00:02:17.369Z,101502.78
2023-03-21T00:02:48.972Z,101503.84
2023-03-21T00:03:20.582Z,101501.19
2023-03-21T00:03:52.276Z,101499.19
2023-03-21T00:04:25.963Z,101499.41
2023-03-21T00:05:05.880Z,101489.69
2023-03-21T00:05:42.559Z,101494.72
2023-03-21T00:06:15.631Z,101488.75
2023-03-21T00:06:47.643Z,101498.75
2023-03-21T00:07:19.187Z,101499.16
2023-03-21T00:07:51.144Z,101493.59
2023-03-21T00:08:25.344Z,101496.25
2023-03-21T00:08:56.959Z,101495.03
2023-03-21T00:09:28.752Z,101493.19
2023-03-21T00:10:59.421Z,101498.38
2023-03-21T00:11:31.112Z,101495.34
2023-03-21T00:12:05.261Z,101495.09
2023-03-21T00:12:37.766Z,101496.09
2023-03-21T00:13:09.587Z,101490.31
2023-03-21T00:13:43.487Z,101490.66
2023-03-21T00:14:18.744Z,101496.28
2023-03-21T00:14:50.637Z,101494.72
2023-03-21T00:15:24.896Z,101492.63
2023-03-21T00:16:22.602Z,101496.75
2023-03-21T00:17:01.877Z,101489.84
2023-03-21T00:17:36.030Z,101494.28
2023-03-21T00:18:11.514Z,101489.47
2023-03-21T00:18:52.609Z,101491.38
2023-03-21T00:19:26.571Z,101484.09
2023-03-21T00:19:59.379Z,101487.50
2023-03-21T00:20:34.342Z,101486.88
2023-03-21T00:21:37.647Z,101486.81
2023-03-21T00:22:08.101Z,101494.59
2023-03-21T00:22:40.322Z,101490.69
2023-03-21T00:23:12.085Z,101485.38
2023-03-21T00:23:44.431Z,101491.69
2023-03-21T00:24:16.473Z,101484.22
2023-03-21T00:24:48.002Z,101480.31
2023-03-21T00:25:19.919Z,101485.63
2023-03-21T00:25:51.483Z,101488.47
2023-03-21T00:26:23.280Z,101482.50
2023-03-21T00:27:00.178Z,101486.00
2023-03-21T00:27:57.220Z,101478.38
2023-03-21T00:28:33.749Z,101481.03
2023-03-21T00:29:05.891Z,101482.81
2023-03-21T00:29:37.769Z,101482.19
2023-03-21T00:30:10.607Z,101481.56
2023-03-21T00:30:44.657Z,101480.59
2023-03-21T00:31:17.433Z,101488.56
2023-03-21T00:31:49.052Z,101482.81
2023-03-21T00:32:21.782Z,101481.22
2023-03-21T00:32:56.823Z,101477.25
2023-03-21T00:33:28.896Z,101487.03
2023-03-21T00:34:01.503Z,101481.81
2023-03-21T00:34:43.338Z,101476.25
2023-03-21T00:36:06.345Z,101475.91
2023-03-21T00:36:18.285Z,101478.38
2023-03-21T00:36:49.902Z,101477.69
2023-03-21T00:37:22.280Z,101474.66
2023-03-21T00:37:53.858Z,101471.44
2023-03-21T00:38:25.463Z,101475.63
2023-03-21T00:38:57.256Z,101473.06
2023-03-21T00:39:29.093Z,101477.66
2023-03-21T00:40:01.271Z,101472.44
2023-03-21T00:40:40.614Z,101468.53
2023-03-21T00:41:25.804Z,101469.53
2023-03-21T00:42:03.583Z,101468.91
2023-03-21T00:42:35.186Z,101479.34
2023-03-21T00:43:08.842Z,101467.31
2023-03-21T00:43:40.516Z,101471.81
2023-03-21T00:44:15.520Z,101468.28
2023-03-21T00:44:47.145Z,101471.75
2023-03-21T00:45:19.360Z,101462.97
2023-03-21T00:45:51.565Z,101470.56
2023-03-21T00:46:25.302Z,101465.25
2023-03-21T00:47:07.777Z,101461.94
2023-03-21T00:47:41.483Z,101458.66
2023-03-21T00:48:13.756Z,101459.09
2023-03-21T00:48:45.778Z,101463.59
2023-03-21T00:49:17.518Z,101459.94
2023-03-21T00:49:50.257Z,101451.56
2023-03-21T00:50:23.532Z,101466.50
2023-03-21T00:50:57.163Z,101456.00
2023-03-21T00:51:31.997Z,101458.41
2023-03-21T00:52:15.751Z,101455.38
2023-03-21T00:52:50.193Z,101458.66
2023-03-21T00:53:22.054Z,101461.31
2023-03-21T00:53:58.017Z,101460.81
2023-03-21T00:54:36.237Z,101454.31
2023-03-21T00:55:10.214Z,101452.72
2023-03-21T00:55:41.956Z,101457.03
2023-03-21T00:56:13.680Z,101453.78
2023-03-21T00:56:45.422Z,101449.34
2023-03-21T00:57:20.198Z,101444.38
2023-03-21T00:58:01.229Z,101448.47
2023-03-21T00:58:33.582Z,101449.28
2023-03-21T00:59:05.326Z,101449.06
2023-03-21T00:59:36.916Z,101446.44
2023-03-21T01:00:13.756Z,101450.06
2023-03-21T01:00:47.068Z,101453.03
2023-03-21T01:01:19.096Z,101439.94
2023-03-21T01:01:53.565Z,101449.69
2023-03-21T01:02:26.846Z,101441.09
2023-03-21T01:03:17.476Z,101444.81
2023-03-21T01:03:51.161Z,101452.34
2023-03-21T01:04:26.873Z,101448.03
2023-03-21T01:04:58.417Z,101452.09
2023-03-21T01:05:53.722Z,101445.75
2023-03-21T01:06:27.529Z,101446.63
2023-03-21T01:06:59.223Z,101447.66
2023-03-21T01:07:31.191Z,101445.00
2023-03-21T01:08:06.021Z,101448.28
2023-03-21T01:08:52.925Z,101448.09
2023-03-21T01:09:25.526Z,101441.38
2023-03-21T01:09:57.057Z,101441.50
2023-03-21T01:10:30.793Z,101439.69
2023-03-21T01:11:04.948Z,101441.50
2023-03-21T01:11:39.239Z,101441.84
2023-03-21T01:12:11.071Z,101436.59
2023-03-21T01:12:42.736Z,101437.03
2023-03-21T01:13:17.213Z,101436.44
2023-03-21T01:14:01.630Z,101436.41
2023-03-21T01:14:39.429Z,101437.41
2023-03-21T01:15:11.415Z,101431.72
2023-03-21T01:15:45.468Z,101430.06
2023-03-21T01:16:17.143Z,101435.31
2023-03-21T01:16:49.911Z,101438.19
2023-03-21T01:17:21.455Z,101434.50
2023-03-21T01:17:53.367Z,101429.63
2023-03-21T01:18:27.413Z,101438.19
2023-03-21T01:18:59.759Z,101427.94
2023-03-21T01:19:48.396Z,101440.94
2023-03-21T01:20:23.095Z,101442.84
2023-03-21T01:20:57.331Z,101434.94
2023-03-21T01:21:28.940Z,101441.84
2023-03-21T01:22:00.512Z,101444.59
2023-03-21T01:22:32.114Z,101439.19
2023-03-21T01:23:03.771Z,101438.19
2023-03-21T01:23:35.774Z,101435.28
2023-03-21T01:24:08.286Z,101440.94
2023-03-21T01:24:50.672Z,101438.03
2023-03-21T01:25:24.721Z,101433.69
2023-03-21T01:25:57.344Z,101440.19
2023-03-21T01:26:29.280Z,101429.13
2023-03-21T01:27:02.824Z,101428.56
2023-03-21T01:27:34.390Z,101434.38
2023-03-21T01:28:06.285Z,101435.19
2023-03-21T01:28:38.977Z,101431.22
2023-03-21T01:29:11.359Z,101436.09
2023-03-21T01:29:43.594Z,101434.88
2023-03-21T01:30:21.444Z,101432.97
2023-03-21T01:30:55.094Z,101430.97
2023-03-21T01:31:26.777Z,101429.56
2023-03-21T01:31:58.489Z,101427.94
2023-03-21T01:32:30.116Z,101429.34
2023-03-21T01:33:01.736Z,101432.81
2023-03-21T01:33:34.527Z,101427.22
2023-03-21T01:34:06.190Z,101425.00
2023-03-21T01:34:38.151Z,101426.72
2023-03-21T01:35:09.904Z,101432.03
2023-03-21T01:35:50.467Z,101420.84
2023-03-21T01:36:27.334Z,101422.81
2023-03-21T01:37:04.418Z,101436.72
2023-03-21T01:37:40.988Z,101427.50
2023-03-21T01:38:13.035Z,101425.53
2023-03-21T01:38:48.442Z,101422.63
2023-03-21T01:39:20.629Z,101436.91
2023-03-21T01:39:54.113Z,101423.50
2023-03-21T01:40:27.947Z,101418.88
2023-03-21T01:41:42.399Z,101425.38
2023-03-21T01:42:21.873Z,101415.66
2023-03-21T01:42:53.856Z,101413.19
2023-03-21T01:43:31.937Z,101416.72
2023-03-21T01:44:05.697Z,101418.94
2023-03-21T01:44:57.640Z,101416.53
2023-03-21T01:46:06.187Z,101419.16
2023-03-21T01:47:13.407Z,101420.78
2023-03-21T01:47:50.677Z,101416.53
2023-03-21T01:48:28.490Z,101423.25
2023-03-21T01:49:08.177Z,101413.41
2023-03-21T01:49:45.875Z,101413.88
2023-03-21T01:50:24.010Z,101410.34
2023-03-21T01:51:22.615Z,101419.34
2023-03-21T01:52:12.235Z,101414.38
2023-03-21T01:52:49.965Z,101414.91
2023-03-21T01:53:31.946Z,101415.28
2023-03-21T01:54:05.054Z,101411.63
2023-03-21T01:54:38.995Z,101417.13
2023-03-21T01:55:13.225Z,101414.66
2023-03-21T01:56:22.655Z,101418.94
2023-03-21T01:57:04.734Z,101411.63
2023-03-21T01:57:49.393Z,101409.41
2023-03-21T01:58:25.284Z,101416.53
2023-03-21T01:59:23.022Z,101413.88
2023-03-21T02:00:16.594Z,101412.91
2023-03-21T02:00:51.422Z,101409.19
2023-03-21T02:01:42.280Z,101410.47
2023-03-21T02:02:25.450Z,101410.41
2023-03-21T02:03:26.313Z,101400.34
2023-03-21T02:04:40.535Z,101405.47
2023-03-21T02:05:38.386Z,101401.03
2023-03-21T02:06:13.179Z,101401.44
2023-03-21T02:07:12.636Z,101401.81
2023-03-21T02:07:52.659Z,101398.72
2023-03-21T02:08:36.838Z,101401.19
2023-03-21T02:09:16.930Z,101394.72
2023-03-21T02:09:49.401Z,101395.28
2023-03-21T02:10:24.505Z,101401.66
2023-03-21T02:10:59.431Z,101405.16
2023-03-21T02:11:46.701Z,101392.38
2023-03-21T02:12:20.040Z,101394.91
2023-03-21T02:12:54.996Z,101396.31
2023-03-21T02:13:27.065Z,101398.97
2023-03-21T02:14:06.415Z,101391.22
2023-03-21T02:14:54.921Z,101387.91
2023-03-21T02:15:38.593Z,101386.31
2023-03-21T02:16:26.433Z,101389.19
2023-03-21T02:17:13.880Z,101382.97
2023-03-21T02:17:52.202Z,101391.63
2023-03-21T02:18:43.068Z,101390.38
2023-03-21T02:19:25.965Z,101386.69
2023-03-21T02:20:09.116Z,101386.06
2023-03-21T02:21:26.323Z,101381.22
2023-03-21T02:22:42.591Z,101386.63
2023-03-21T02:23:36.862Z,101379.34
2023-03-21T02:25:04.426Z,101377.94
2023-03-21T02:25:43.337Z,101387.69
2023-03-21T02:27:01.354Z,101368.72
2023-03-21T02:27:47.018Z,101375.81
2023-03-21T02:28:26.262Z,101377.94
2023-03-21T02:29:37.830Z,101376.44
2023-03-21T02:30:52.138Z,101375.06
2023-03-21T02:31:38.667Z,101373.25
2023-03-21T02:32:37.724Z,101373.25
2023-03-21T02:33:21.204Z,101377.72
2023-03-21T02:34:13.814Z,101378.91
2023-03-21T02:35:17.722Z,101371.13
2023-03-21T02:36:13.994Z,101370.38
2023-03-21T02:36:58.258Z,101371.13
2023-03-21T02:37:40.286Z,101367.06
2023-03-21T02:38:39.205Z,101368.03
2023-03-21T02:39:15.859Z,101363.41
2023-03-21T02:39:59.927Z,101364.22
2023-03-21T02:40:40.122Z,101362.97
2023-03-21T02:41:19.037Z,101364.91
2023-03-21T02:42:17.943Z,101360.91
2023-03-21T02:43:01.287Z,101358.47
2023-03-21T02:44:00.278Z,101360.91
2023-03-21T02:44:39.771Z,101359.13
2023-03-21T02:45:17.940Z,101355.63
2023-03-21T02:46:02.525Z,101356.03
2023-03-21T02:46:53.624Z,101359.25
2023-03-21T02:47:47.640Z,101354.75
2023-03-21T02:48:31.119Z,101355.88
2023-03-21T02:49:19.859Z,101352.03
2023-03-21T02:50:03.417Z,101360.00
2023-03-21T02:50:37.481Z,101356.78
2023-03-21T02:51:11.777Z,101355.19
2023-03-21T02:51:45.596Z,101355.63
2023-03-21T02:52:37.422Z,101353.94
2023-03-21T02:53:11.878Z,101347.34
2023-03-21T02:53:51.712Z,101353.94
2023-03-21T02:54:42.061Z,101349.88
2023-03-21T02:55:26.532Z,101351.16
2023-03-21T02:56:03.445Z,101353.38
2023-03-21T02:56:40.368Z,101346.22
2023-03-21T02:57:12.720Z,101350.28
2023-03-21T02:57:45.387Z,101356.41
2023-03-21T02:58:20.877Z,101350.38
2023-03-21T02:58:57.071Z,101350.13
2023-03-21T02:59:54.537Z,101352.16
2023-03-21T03:00:34.783Z,101355.25
2023-03-21T03:01:09.397Z,101350.72
2023-03-21T03:01:46.657Z,101348.69
2023-03-21T03:02:21.816Z,101355.19
2023-03-21T03:03:06.392Z,101350.94
2023-03-21T03:03:41.039Z,101352.41
2023-03-21T03:04:24.353Z,101348.88
2023-03-21T03:04:56.513Z,101348.25
2023-03-21T03:05:30.588Z,101347.44
2023-03-21T03:06:10.120Z,101341.28
2023-03-21T03:06:59.050Z,101345.59
2023-03-21T03:07:46.681Z,101347.03
2023-03-21T03:08:52.880Z,101350.75
2023-03-21T03:09:57.624Z,101338.50
2023-03-21T03:11:05.758Z,101331.16
2023-03-21T03:11:43.255Z,101342.97
2023-03-21T03:12:31.576Z,101345.81
2023-03-21T03:13:15.834Z,101345.97
2023-03-21T03:14:21.259Z,101338.88
2023-03-21T03:15:07.633Z,101347.22
2023-03-21T03:15:45.680Z,101342.16
2023-03-21T03:16:36.811Z,101336.84
2023-03-21T03:17:18.871Z,101335.59
2023-03-21T03:18:19.967Z,101333.56
2023-03-21T03:18:54.667Z,101335.41
2023-03-21T03:19:31.181Z,101333.81
2023-03-21T03:20:17.474Z,101330.31
2023-03-21T03:21:03.547Z,101336.47
2023-03-21T03:21:54.098Z,101340.13
2023-03-21T03:22:55.858Z,101329.88
2023-03-21T03:23:36.296Z,101330.09
2023-03-21T03:24:07.902Z,101336.59
2023-03-21T03:24:53.774Z,101326.22
2023-03-21T03:25:49.090Z,101344.97
2023-03-21T03:26:39.936Z,101337.19
2023-03-21T03:27:17.682Z,101334.56
2023-03-21T03:27:51.293Z,101329.88
2023-03-21T03:28:28.905Z,101334.00
2023-03-21T03:29:05.128Z,101336.38
2023-03-21T03:29:39.581Z,101336.59
2023-03-21T03:30:12.991Z,101337.00
2023-03-21T03:31:00.841Z,101330.72
2023-03-21T03:31:43.453Z,101346.25
2023-03-21T03:32:19.258Z,101336.88
2023-03-21T03:32:57.066Z,101338.28
2023-03-21T03:33:29.168Z,101338.09
2023-03-21T03:34:12.654Z,101339.13
2023-03-21T03:34:51.890Z,101335.19
2023-03-21T03:35:26.133Z,101338.50
2023-03-21T03:36:06.245Z,101338.91
2023-03-21T03:36:43.251Z,101337.00
2023-03-21T03:37:26.474Z,101338.44
2023-03-21T03:38:01.157Z,101336.38
2023-03-21T03:38:35.121Z,101338.25
2023-03-21T03:39:12.106Z,101335.78
2023-03-21T03:40:06.513Z,101326.22
2023-03-21T03:40:49.007Z,101332.34
2023-03-21T03:42:07.970Z,101327.47
2023-03-21T03:42:57.261Z,101339.69
2023-03-21T03:43:53.429Z,101334.56
2023-03-21T03:44:26.102Z,101326.56
2023-03-21T03:45:04.603Z,101329.75
2023-03-21T03:45:50.285Z,101329.09
2023-03-21T03:46:29.036Z,101330.09
2023-03-21T03:47:00.604Z,101321.72
2023-03-21T03:47:56.063Z,101319.66
2023-03-21T03:48:36.069Z,101324.97
2023-03-21T03:49:15.745Z,101324.97
2023-03-21T03:49:52.850Z,101335.97
2023-03-21T03:50:29.012Z,101327.81
2023-03-21T03:51:07.775Z,101328.84
2023-03-21T03:52:24.740Z,101322.94
2023-03-21T03:53:18.051Z,101315.97
2023-03-21T03:53:58.739Z,101328.00
2023-03-21T03:54:37.172Z,101317.78
2023-03-21T03:55:12.163Z,101322.94
2023-03-21T03:55:46.769Z,101324.34
2023-03-21T03:56:21.200Z,101319.88
2023-03-21T03:56:53.191Z,101322.94
2023-03-21T03:57:27.836Z,101323.38
2023-03-21T03:58:03.230Z,101323.56
2023-03-21T03:58:45.375Z,101324.56
2023-03-21T03:59:22.018Z,101320.91
2023-03-21T04:00:13.023Z,101321.91
2023-03-21T04:00:56.794Z,101335.41
2023-03-21T04:01:29.150Z,101322.75
2023-03-21T04:02:01.969Z,101325.34
2023-03-21T04:02:33.841Z,101327.00
2023-03-21T04:03:09.866Z,101324.34
2023-03-21T04:03:49.914Z,101325.78
2023-03-21T04:04:23.019Z,101313.75
2023-03-21T04:04:57.811Z,101326.38
2023-03-21T04:05:29.533Z,101330.47
2023-03-21T04:06:01.094Z,101324.97
2023-03-21T04:06:33.506Z,101324.91
2023-03-21T04:07:06.548Z,101328.00
2023-03-21T04:07:38.796Z,101324.97
2023-03-21T04:08:10.480Z,101323.53
2023-03-21T04:08:46.853Z,101330.66
2023-03-21T04:09:23.367Z,101332.69
2023-03-21T04:09:58.527Z,101319.22
2023-03-21T04:10:30.129Z,101327.38
2023-03-21T04:11:02.742Z,101314.72
2023-03-21T04:11:36.526Z,101323.31
2023-03-21T04:12:08.144Z,101324.97
2023-03-21T04:12:40.950Z,101323.31
2023-03-21T04:13:18.591Z,101327.03
2023-03-21T04:14:03.380Z,101322.53
2023-03-21T04:14:44.219Z,101322.75
2023-03-21T04:15:19.152Z,101323.94
2023-03-21T04:15:55.086Z,101325.19
2023-03-21T04:16:26.706Z,101316.84
2023-03-21T04:16:58.671Z,101318.84
2023-03-21T04:17:30.210Z,101312.94
2023-03-21T04:18:01.793Z,101319.66
2023-03-21T04:18:33.330Z,101323.75
2023-03-21T04:19:05.799Z,101331.50
2023-03-21T04:19:37.476Z,101315.97
2023-03-21T04:20:15.072Z,101325.91
2023-03-21T04:20:51.526Z,101319.34
2023-03-21T04:21:23.626Z,101324.47
2023-03-21T04:21:55.624Z,101323.41
2023-03-21T04:22:27.228Z,101319.97
2023-03-21T04:22:59.012Z,101322.44
2023-03-21T04:23:30.878Z,101322.44
2023-03-21T04:24:02.452Z,101324.16
2023-03-21T04:24:37.573Z,101327.75
2023-03-21T04:25:09.728Z,101322.44
2023-03-21T04:25:53.899Z,101322.00
2023-03-21T04:26:32.914Z,101324.41
2023-03-21T04:27:39.922Z,101321.41
2023-03-21T04:28:33.548Z,101319.41
2023-03-21T04:29:26.041Z,101317.38
2023-03-21T04:30:16.549Z,101320.34
2023-03-21T04:31:03.700Z,101324.06
2023-03-21T04:31:49.944Z,101315.97
2023-03-21T04:32:24.727Z,101322.91
2023-03-21T04:33:04.356Z,101321.06
2023-03-21T04:33:38.543Z,101324.72
2023-03-21T04:34:12.467Z,101325.09
2023-03-21T04:34:50.039Z,101315.22
2023-03-21T04:35:23.931Z,101318.09
2023-03-21T04:35:56.325Z,101322.78
2023-03-21T04:36:38.722Z,101322.97
2023-03-21T04:37:13.536Z,101317.88
2023-03-21T04:37:46.097Z,101322.81
2023-03-21T04:38:19.716Z,101316.38
2023-03-21T04:38:51.547Z,101312.19
2023-03-21T04:39:24.729Z,101318.91
2023-03-21T04:39:56.425Z,101319.16
2023-03-21T04:40:28.166Z,101316.63
2023-03-21T04:41:01.237Z,101315.63
2023-03-21T04:41:35.002Z,101311.56
2023-03-21T04:42:06.870Z,101312.63
2023-03-21T04:42:38.593Z,101313.84
2023-03-21T04:43:10.409Z,101323.63
2023-03-21T04:43:44.644Z,101316.75
2023-03-21T04:44:17.633Z,101319.28
2023-03-21T04:44:49.625Z,101316.25
2023-03-21T04:45:21.209Z,101320.13
2023-03-21T04:45:52.851Z,101319.91
2023-03-21T04:46:24.828Z,101317.88
2023-03-21T04:46:56.409Z,101319.09
2023-03-21T04:47:28.202Z,101315.03
2023-03-21T04:48:00.533Z,101309.34
2023-03-21T04:48:32.155Z,101306.13
2023-03-21T04:49:07.120Z,101309.16
2023-03-21T04:49:39.116Z,101303.59
2023-03-21T04:50:11.633Z,101304.09
2023-03-21T04:50:44.729Z,101309.41
2023-03-21T04:51:16.898Z,101308.13
2023-03-21T04:51:48.876Z,101308.78
2023-03-21T04:52:25.424Z,101305.03
2023-03-21T04:52:57.103Z,101306.50
2023-03-21T04:53:28.669Z,101303.66
2023-03-21T04:54:00.422Z,101304.03
2023-03-21T04:54:32.483Z,101311.94
2023-03-21T04:55:04.510Z,101304.41
2023-03-21T04:55:37.123Z,101302.78
2023-03-21T04:56:09.420Z,101295.44
2023-03-21T04:56:41.047Z,101304.66
2023-03-21T04:57:12.693Z,101299.81
2023-03-21T04:57:45.282Z,101300.94
2023-03-21T04:58:17.214Z,101300.75
2023-03-21T04:58:50.398Z,101300.16
2023-03-21T04:59:22.146Z,101302.81
2023-03-21T04:59:53.702Z,101299.53
2023-03-21T05:00:27.216Z,101306.97
2023-03-21T05:00:58.770Z,101305.25
2023-03-21T05:01:31.382Z,101300.94
2023-03-21T05:02:03.013Z,101300.91
2023-03-21T05:02:35.930Z,101299.31
2023-03-21T05:03:10.911Z,101306.84
2023-03-21T05:03:42.628Z,101307.22
2023-03-21T05:04:14.517Z,101299.94
2023-03-21T05:04:46.278Z,101298.69
2023-03-21T05:05:17.958Z,101304.00
2023-03-21T05:05:50.164Z,101301.09
2023-03-21T05:06:23.704Z,101306.00
2023-03-21T05:06:55.926Z,101300.75
2023-03-21T05:07:27.535Z,101297.91
2023-03-21T05:08:00.552Z,101297.84
2023-03-21T05:08:32.081Z,101299.94
2023-03-21T05:09:07.734Z,101306.66
2023-03-21T05:09:40.709Z,101302.34
2023-03-21T05:10:12.506Z,101306.00
2023-03-21T05:10:45.876Z,101310.06
2023-03-21T05:11:17.715Z,101301.47
2023-03-21T05:11:49.955Z,101302.72
2023-03-21T05:12:21.755Z,101303.50
2023-03-21T05:12:54.028Z,101308.66
2023-03-21T05:13:25.784Z,101301.88
2023-03-21T05:13:58.331Z,101304.31
2023-03-21T05:14:29.953Z,101308.44
2023-03-21T05:15:03.864Z,101304.28
2023-03-21T05:15:35.612Z,101306.00
2023-03-21T05:16:08.173Z,101306.34
2023-03-21T05:16:48.503Z,101304.38
2023-03-21T05:17:24.870Z,101310.03
2023-03-21T05:17:58.606Z,101302.09
2023-03-21T05:18:30.463Z,101306.75
2023-03-21T05:19:13.804Z,101304.28
2023-03-21T05:19:46.107Z,101307.19
2023-03-21T05:20:17.872Z,101305.34
2023-03-21T05:20:53.708Z,101312.09
2023-03-21T05:21:25.359Z,101307.56
2023-03-21T05:21:56.934Z,101301.25
2023-03-21T05:22:40.927Z,101308.19
2023-03-21T05:23:18.476Z,101300.59
2023-03-21T05:23:58.371Z,101308.56
2023-03-21T05:24:31.296Z,101302.69
2023-03-21T05:25:06.462Z,101301.47
2023-03-21T05:26:05.160Z,101305.34
2023-03-21T05:26:44.218Z,101303.88
2023-03-21T05:27:35.676Z,101305.16
2023-03-21T05:28:12.642Z,101305.53
2023-03-21T05:28:48.101Z,101303.50
2023-03-21T05:29:20.967Z,101305.28
2023-03-21T05:30:24.121Z,101306.28
2023-03-21T05:31:01.155Z,101305.66
2023-03-21T05:31:32.965Z,101304.19
2023-03-21T05:32:11.262Z,101303.56
2023-03-21T05:32:43.637Z,101305.91
2023-03-21T05:33:16.580Z,101304.28
2023-03-21T05:33:48.545Z,101301.34
2023-03-21T05:34:23.607Z,101308.69
2023-03-21T05:34:55.392Z,101298.31
2023-03-21T05:35:27.922Z,101305.16
2023-03-21T05:36:02.324Z,101302.16
2023-03-21T05:36:36.748Z,101299.69
2023-03-21T05:37:11.354Z,101301.25
2023-03-21T05:37:50.134Z,101298.84
2023-03-21T05:38:21.911Z,101298.50
2023-03-21T05:38:56.339Z,101294.47
2023-03-21T05:39:28.358Z,101302.63
2023-03-21T05:40:10.830Z,101301.72
2023-03-21T05:40:47.722Z,101296.03
2023-03-21T05:41:21.323Z,101289.22
2023-03-21T05:41:53.111Z,101299.22
2023-03-21T05:42:25.398Z,101294.72
2023-03-21T05:42:57.017Z,101298.41
2023-03-21T05:43:29.685Z,101293.53
2023-03-21T05:44:01.534Z,101295.34
2023-03-21T05:44:33.084Z,101294.16
2023-03-21T05:45:07.095Z,101293.25
2023-03-21T05:45:40.185Z,101295.66
2023-03-21T05:46:12.149Z,101288.66
2023-03-21T05:46:43.734Z,101296.19
2023-03-21T05:47:17.149Z,101296.66
2023-03-21T05:47:51.706Z,101293.09
2023-03-21T05:48:26.059Z,101289.34
2023-03-21T05:49:15.072Z,101295.09
2023-03-21T05:49:47.779Z,101296.72
2023-03-21T05:50:20.546Z,101299.22
2023-03-21T05:51:06.299Z,101303.38
2023-03-21T05:51:38.588Z,101304.63
2023-03-21T05:52:10.759Z,101301.41
2023-03-21T05:52:42.577Z,101297.28
2023-03-21T05:53:17.384Z,101295.28
2023-03-21T05:53:49.357Z,101296.03
2023-03-21T05:54:21.425Z,101301.50
2023-03-21T05:54:54.463Z,101293.97
2023-03-21T05:55:28.641Z,101297.69
2023-03-21T05:56:01.206Z,101301.97
2023-03-21T05:56:47.461Z,101298.25
2023-03-21T05:57:34.978Z,101297.69
2023-03-21T05:58:11.597Z,101296.03
2023-03-21T05:58:44.939Z,101301.50
2023-03-21T05:59:16.802Z,101297.56
2023-03-21T05:59:50.334Z,101290.72
2023-03-21T06:00:23.373Z,101298.44
2023-03-21T06:01:10.905Z,101296.41
2023-03-21T06:01:46.050Z,101296.41
2023-03-21T06:02:20.628Z,101296.41
2023-03-21T06:02:53.770Z,101300.09
2023-03-21T06:03:55.919Z,101296.84
2023-03-21T06:04:29.442Z,101292.38
2023-03-21T06:05:01.237Z,101292.50
2023-03-21T06:05:32.828Z,101291.41
2023-03-21T06:06:04.922Z,101288.59
2023-03-21T06:06:43.955Z,101293.25
2023-03-21T06:07:15.779Z,101290.91
2023-03-21T06:07:47.543Z,101296.22
2023-03-21T06:08:19.806Z,101291.06
2023-03-21T06:08:51.400Z,101293.78
2023-03-21T06:09:24.099Z,101294.00
2023-03-21T06:10:00.366Z,101298.69
2023-03-21T06:10:32.197Z,101291.94
2023-03-21T06:11:18.139Z,101300.53
2023-03-21T06:11:51.927Z,101294.41
2023-03-21T06:12:31.447Z,101296.41
2023-03-21T06:13:22.952Z,101294.41
2023-03-21T06:13:54.685Z,101298.69
2023-03-21T06:14:27.744Z,101303.75
2023-03-21T06:15:21.263Z,101301.09
2023-03-21T06:15:58.563Z,101301.72
2023-03-21T06:16:30.907Z,101299.97
2023-03-21T06:17:02.677Z,101300.72
2023-03-21T06:17:35.608Z,101296.13
2023-03-21T06:18:11.814Z,101303.25
2023-03-21T06:18:47.484Z,101297.31
2023-03-21T06:19:32.196Z,101297.97
2023-03-21T06:20:26.603Z,101306.94
2023-03-21T06:21:02.167Z,101304.63
2023-03-21T06:21:33.870Z,101296.03
2023-03-21T06:22:06.023Z,101303.00
2023-03-21T06:22:40.134Z,101301.72
2023-03-21T06:23:11.775Z,101305.59
2023-03-21T06:23:43.523Z,101307.44
2023-03-21T06:24:15.836Z,101304.19
2023-03-21T06:24:47.378Z,101302.56
2023-03-21T06:25:22.663Z,101296.84
2023-03-21T06:25:54.248Z,101300.72
2023-03-21T06:26:28.752Z,101299.69
2023-03-21T06:27:02.884Z,101301.25
2023-03-21T06:27:43.162Z,101294.00
2023-03-21T06:28:14.685Z,101298.97
2023-03-21T06:28:46.488Z,101296.84
2023-03-21T06:29:18.342Z,101296.03
2023-03-21T06:29:53.790Z,101294.53
2023-03-21T06:30:26.300Z,101294.00
2023-03-21T06:31:08.186Z,101294.41
2023-03-21T06:31:40.040Z,101299.69
2023-03-21T06:32:12.151Z,101293.13
2023-03-21T06:32:43.723Z,101288.22
2023-03-21T06:33:18.721Z,101291.13
2023-03-21T06:33:50.304Z,101295.59
2023-03-21T06:34:21.820Z,101290.72
2023-03-21T06:34:53.669Z,101294.78
2023-03-21T06:35:25.325Z,101287.31
2023-03-21T06:35:58.626Z,101289.84
2023-03-21T06:36:30.485Z,101293.44
2023-03-21T06:37:02.072Z,101292.56
2023-03-21T06:37:36.936Z,101289.34
2023-03-21T06:38:08.799Z,101290.97
2023-03-21T06:38:40.600Z,101290.06
2023-03-21T06:39:13.400Z,101287.41
2023-03-21T06:39:47.016Z,101289.22
2023-03-21T06:40:19.435Z,101289.03
2023-03-21T06:40:51.509Z,101290.59
2023-03-21T06:41:23.116Z,101293.78
2023-03-21T06:42:04.151Z,101294.66
2023-03-21T06:42:37.537Z,101295.09
2023-03-21T06:43:16.620Z,101292.13
2023-03-21T06:43:48.849Z,101294.78
2023-03-21T06:44:22.080Z,101293.53
2023-03-21T06:45:01.810Z,101292.50
2023-03-21T06:45:33.783Z,101293.13
2023-03-21T06:46:05.784Z,101295.59
2023-03-21T06:46:38.092Z,101289.59
2023-03-21T06:47:09.963Z,101296.63
2023-03-21T06:47:41.710Z,101296.41
2023-03-21T06:48:20.440Z,101293.38
2023-03-21T06:48:54.159Z,101290.53
2023-03-21T06:49:26.824Z,101290.34
2023-03-21T06:50:00.247Z,101290.63
2023-03-21T06:50:32.095Z,101298.59
2023-03-21T06:51:04.924Z,101292.44
2023-03-21T06:51:37.906Z,101296.03
2023-03-21T06:52:18.640Z,101293.13
2023-03-21T06:52:51.058Z,101291.50
2023-03-21T06:53:27.219Z,101298.69
2023-03-21T06:54:19.898Z,101295.78
2023-03-21T06:55:02.044Z,101294.97
2023-03-21T06:55:33.608Z,101293.78
2023-03-21T06:56:06.736Z,101294.78
2023-03-21T06:56:40.640Z,101294.84
2023-03-21T06:57:15.550Z,101298.16
2023-03-21T06:57:47.120Z,101300.13
2023-03-21T06:58:19.623Z,101291.88
2023-03-21T06:58:51.624Z,101295.66
2023-03-21T06:59:41.622Z,101299.69
2023-03-21T07:00:16.006Z,101297.69
2023-03-21T07:00:51.004Z,101291.88
2023-03-21T07:01:23.082Z,101299.69
2023-03-21T07:02:04.705Z,101297.19
2023-03-21T07:02:40.639Z,101299.97
2023-03-21T07:03:19.508Z,101292.00
2023-03-21T07:03:53.608Z,101297.88
2023-03-21T07:04:27.212Z,101295.84
2023-03-21T07:05:00.182Z,101290.88
2023-03-21T07:05:36.431Z,101297.00
2023-03-21T07:06:14.007Z,101297.63
2023-03-21T07:06:45.783Z,101290.28
2023-03-21T07:07:17.688Z,101294.72
2023-03-21T07:07:49.211Z,101298.75
2023-03-21T07:08:21.117Z,101298.44
2023-03-21T07:08:53.887Z,101295.16
2023-03-21T07:09:28.202Z,101291.56
2023-03-21T07:10:03.599Z,101296.03